地図

経路データ

SID SEASON NUMBER BASIN SUBBASIN NAME ISO_TIME NATURE LAT LON WMO_WIND WMO_PRES WMO_AGENCY TRACK_TYPE DIST2LAND LANDFALL IFLAG USA_AGENCY USA_ATCF_ID USA_LAT USA_LON USA_RECORD USA_STATUS USA_WIND USA_PRES USA_SSHS USA_R34_NE USA_R34_SE USA_R34_SW USA_R34_NW USA_R50_NE USA_R50_SE USA_R50_SW USA_R50_NW USA_R64_NE USA_R64_SE USA_R64_SW USA_R64_NW USA_POCI USA_ROCI USA_RMW USA_EYE TOKYO_LAT TOKYO_LON TOKYO_GRADE TOKYO_WIND TOKYO_PRES TOKYO_R50_DIR TOKYO_R50_LONG TOKYO_R50_SHORT TOKYO_R30_DIR TOKYO_R30_LONG TOKYO_R30_SHORT TOKYO_LAND CMA_LAT CMA_LON CMA_CAT CMA_WIND CMA_PRES HKO_LAT HKO_LON HKO_CAT HKO_WIND HKO_PRES NEWDELHI_LAT NEWDELHI_LON NEWDELHI_GRADE NEWDELHI_WIND NEWDELHI_PRES NEWDELHI_CI NEWDELHI_DP NEWDELHI_POCI REUNION_LAT REUNION_LON REUNION_TYPE REUNION_WIND REUNION_PRES REUNION_TNUM REUNION_CI REUNION_RMW REUNION_R34_NE REUNION_R34_SE REUNION_R34_SW REUNION_R34_NW REUNION_R50_NE REUNION_R50_SE REUNION_R50_SW REUNION_R50_NW REUNION_R64_NE REUNION_R64_SE REUNION_R64_SW REUNION_R64_NW BOM_LAT BOM_LON BOM_TYPE BOM_WIND BOM_PRES BOM_TNUM BOM_CI BOM_RMW BOM_R34_NE BOM_R34_SE BOM_R34_SW BOM_R34_NW BOM_R50_NE BOM_R50_SE BOM_R50_SW BOM_R50_NW BOM_R64_NE BOM_R64_SE BOM_R64_SW BOM_R64_NW BOM_ROCI BOM_POCI BOM_EYE BOM_POS_METHOD BOM_PRES_METHOD NADI_LAT NADI_LON NADI_CAT NADI_WIND NADI_PRES WELLINGTON_LAT WELLINGTON_LON WELLINGTON_WIND WELLINGTON_PRES DS824_LAT DS824_LON DS824_STAGE DS824_WIND DS824_PRES TD9636_LAT TD9636_LON TD9636_STAGE TD9636_WIND TD9636_PRES TD9635_LAT TD9635_LON TD9635_WIND TD9635_PRES TD9635_ROCI NEUMANN_LAT NEUMANN_LON NEUMANN_CLASS NEUMANN_WIND NEUMANN_PRES MLC_LAT MLC_LON MLC_CLASS MLC_WIND MLC_PRES USA_GUST BOM_GUST BOM_GUST_PER REUNION_GUST REUNION_GUST_PER USA_SEAHGT USA_SEARAD_NE USA_SEARAD_SE USA_SEARAD_SW USA_SEARAD_NW STORM_SPEED STORM_DIR
1986287N09141 1986 103 WP MM GEORGIA 1986-10-14 00:00:00 NR 9.00000 141.000 main 1227 1206 __________O___ -1 9.00000 141.000 0 14 275
1986287N09141 1986 103 WP MM GEORGIA 1986-10-14 03:00:00 NR 9.05713 140.319 main 1211 1186 __________P___ -1 9.05713 140.319 0 13 275
1986287N09141 1986 103 WP MM GEORGIA 1986-10-14 06:00:00 NR 9.11090 139.640 main 1182 1164 __________P___ -1 9.11090 139.640 0 13 274
1986287N09141 1986 103 WP MM GEORGIA 1986-10-14 09:00:00 NR 9.15921 138.966 main 1171 1148 __________P___ -1 9.15921 138.966 0 13 274
1986287N09141 1986 103 WP MM GEORGIA 1986-10-14 12:00:00 NR 9.20000 138.300 main 1148 1133 __________O___ -1 9.20000 138.300 0 13 273
1986287N09141 1986 103 WP MM GEORGIA 1986-10-14 15:00:00 NR 9.23204 137.646 main 1131 1123 __________P___ -1 9.23204 137.646 0 13 273
1986287N09141 1986 103 WP MM GEORGIA 1986-10-14 18:00:00 NR 9.25739 137.018 main 1131 1104 __________P___ -1 9.25739 137.018 0 12 272
1986287N09141 1986 103 WP MM GEORGIA 1986-10-14 21:00:00 NR 9.27902 136.430 main 1093 1039 __________P___ -1 9.27902 136.430 0 11 272
1986287N09141 1986 103 WP MM GEORGIA 1986-10-15 00:00:00 NR 9.30000 135.900 main 1039 995 __________O___ -1 9.30000 135.900 0 10 272
1986287N09141 1986 103 WP MM GEORGIA 1986-10-15 03:00:00 NR 9.32035 135.451 main 995 952 __________P___ -1 9.32035 135.451 0 8 273
1986287N09141 1986 103 WP MM GEORGIA 1986-10-15 06:00:00 NR 9.34174 135.055 main 952 911 __________P___ -1 9.34174 135.055 0 8 274
1986287N09141 1986 103 WP MM GEORGIA 1986-10-15 09:00:00 NR 9.36730 134.682 main 911 868 __________P___ -1 9.36730 134.682 0 7 274
1986287N09141 1986 103 WP MM GEORGIA 1986-10-15 12:00:00 NR 9.40000 134.300 main 868 825 __________O___ -1 9.40000 134.300 0 8 275
1986287N09141 1986 103 WP MM GEORGIA 1986-10-15 15:00:00 NR 9.43483 133.836 main 814 774 __________P___ -1 9.43483 133.836 0 9 275
1986287N09141 1986 103 WP MM GEORGIA 1986-10-15 18:00:00 NR 9.47773 133.363 main 774 721 __________P___ -1 9.47773 133.363 0 9 276
1986287N09141 1986 103 WP MM GEORGIA 1986-10-15 21:00:00 NR 9.53173 132.908 main 721 683 __________P___ -1 9.53173 132.908 0 9 278
1986287N09141 1986 103 WP MM GEORGIA 1986-10-16 00:00:00 NR 9.60000 132.500 main 683 655 __________O___ -1 9.60000 132.500 0 7 282
1986287N09141 1986 103 WP MM GEORGIA 1986-10-16 03:00:00 NR 9.68126 132.171 main 655 625 __________P___ -1 9.68126 132.171 0 6 286
1986287N09141 1986 103 WP MM GEORGIA 1986-10-16 06:00:00 NR 9.77714 131.890 main 625 603 __________P___ -1 9.77714 131.890 0 6 291
1986287N09141 1986 103 WP MM GEORGIA 1986-10-16 09:00:00 NR 9.88446 131.639 main 594 575 __________P___ -1 9.88446 131.639 0 5 295
1986287N09141 1986 103 WP MM GEORGIA 1986-10-16 12:00:00 NR 10.0000 131.400 main 575 557 __________O___ -1 10.0000 131.400 1 5 297
1986287N09141 1986 103 WP MM GEORGIA 1986-10-16 15:00:00 NR 10.1299 131.143 main 546 527 __________P___ -1 10.1299 131.143 1 6 298
1986287N09141 1986 103 WP MM GEORGIA 1986-10-16 18:00:00 NR 10.2649 130.893 main 530 508 __________P___ -1 10.2649 130.893 1 6 298
1986287N09141 1986 103 WP MM GEORGIA 1986-10-16 21:00:00 NR 10.3924 130.646 main 500 482 __________P___ -1 10.3924 130.646 1 5 296
1986287N09141 1986 103 WP MM GEORGIA 1986-10-17 00:00:00 NR 10.5000 130.400 main 482 462 __________O___ -1 10.5000 130.400 1 5 289
1986287N09141 1986 103 WP MM GEORGIA 1986-10-17 03:00:00 NR 10.5552 130.162 main 465 445 __________P___ -1 10.5552 130.162 1 4 278
1986287N09141 1986 103 WP MM GEORGIA 1986-10-17 06:00:00 TS 10.5615 129.948 1000 tokyo main 434 414 _OO_______P___ -1 10.5000 130.000 2 1000 0 0 0 10.5000 130.000 1 29 1000 10.5923 129.922 1 5 277
1986287N09141 1986 103 WP MM GEORGIA 1986-10-17 09:00:00 TS 10.6173 129.635 main 404 379 _PP_______P___ -1 10.6476 129.700 2 999 0 0 10.5553 129.498 1 29 1000 10.6333 129.671 1 6 282
1986287N09141 1986 103 WP MM GEORGIA 1986-10-17 12:00:00 TS 10.7000 129.310 998 tokyo main 379 350 _OO_______O___ -1 10.8000 129.400 2 998 0 0 0 10.6000 129.100 1 29 1000 10.7000 129.400 1 25 6 287
1986287N09141 1986 103 WP MM GEORGIA 1986-10-17 15:00:00 TS 10.8031 129.030 main 350 327 _PP_______P___ -1 10.9575 129.100 2 996 0 0 10.6349 128.870 1 29 1000 10.8170 129.121 1 26 6 293
1986287N09141 1986 103 WP MM GEORGIA 1986-10-17 18:00:00 TS 10.9207 128.772 994 tokyo main 327 294 _OO_______P___ -1 11.1000 128.800 2 994 0 0 0 10.7000 128.700 1 29 1000 10.9622 128.817 1 27 6 295
1986287N09141 1986 103 WP MM GEORGIA 1986-10-17 21:00:00 TS 11.0462 128.492 main 294 263 _PP_______P___ -1 11.1999 128.515 2 993 0 0 10.8124 128.480 1 29 1000 11.1263 128.480 1 28 6 296
1986287N09141 1986 103 WP MM GEORGIA 1986-10-18 00:00:00 TS 11.2000 128.192 992 tokyo main 263 222 _OOO______O___ -1 11.3000 128.200 2 992 0 0 0 11.0000 128.200 1 29 1000 11.2000 128.500 TD 30 995 11.3000 128.100 1 30 8 299
1986287N09141 1986 103 WP MM GEORGIA 1986-10-18 03:00:00 TS 11.4088 127.812 main 222 187 _PPP______P___ -1 11.4349 127.845 2 992 0 0 11.2924 127.845 1 33 997 11.4551 127.963 TD 32 992 11.4760 127.672 1 35 9 297
1986287N09141 1986 103 WP MM GEORGIA 1986-10-18 06:00:00 TS 11.6269 127.344 45 992 tokyo main 176 138 OOOO______P___ jtwc_wp WP211986 11.5000 127.300 45 0 11.6000 127.400 3 45 992 0 9 75 75 0 11.6000 127.400 2 38 995 11.7000 127.400 TS 35 990 11.6575 127.203 1 40 11 293
1986287N09141 1986 103 WP MM GEORGIA 1986-10-18 09:00:00 TS 11.8348 126.794 main 138 89 PPPP______P___ WP211986 11.7677 126.740 47 0 11.7925 126.830 3 45 992 0 9 87 87 11.8226 126.865 2 38 995 11.9225 126.800 TS 37 990 11.8353 126.707 1 45 12 290
1986287N09141 1986 103 WP MM GEORGIA 1986-10-18 12:00:00 TS 12.0211 126.221 45 992 tokyo main 79 21 OOOO______O___ jtwc_wp WP211986 12.0000 126.200 50 0 12.0000 126.200 3 45 992 0 9 100 100 0 12.0000 126.300 2 38 995 12.1000 126.200 TS 40 990 12.0000 126.200 2 50 11 288
1986287N09141 1986 103 WP MM GEORGIA 1986-10-18 15:00:00 TS 12.1758 125.696 main 21 0 PPPP______P___ WP211986 12.1724 125.692 52 0 12.1999 125.592 3 42 993 0 9 100 100 12.1648 125.800 2 38 995 12.2073 125.642 TS 40 991 12.1344 125.755 2 50 11 286
1986287N09141 1986 103 WP MM GEORGIA 1986-10-18 18:00:00 TS 12.3112 125.179 40 994 tokyo main 0 0 OOOO______P___ jtwc_wp WP211986 12.3000 125.200 55 0 12.4000 125.000 3 40 994 0 9 100 100 0 12.3000 125.300 2 38 995 12.3000 125.100 TS 40 993 12.2560 125.297 2 50 11 285
1986287N09141 1986 103 WP MM GEORGIA 1986-10-18 21:00:00 TS 12.4478 124.657 main 0 0 PPPP______P___ WP211986 12.3998 124.715 52 0 12.6148 124.450 3 40 995 0 9 100 100 12.4074 124.765 2 38 995 12.4423 124.565 TS 40 994 12.3747 124.790 2 50 11 284
1986287N09141 1986 103 WP MM GEORGIA 1986-10-19 00:00:00 TS 12.5800 124.100 40 996 tokyo main 0 0 OOOO______O___ jtwc_wp WP211986 12.5000 124.200 50 0 12.8000 123.900 3 40 996 0 9 100 100 0 12.5000 124.200 2 38 995 12.6000 124.000 TS 40 995 12.5000 124.200 2 50 12 283
1986287N09141 1986 103 WP MM GEORGIA 1986-10-19 03:00:00 TS 12.7139 123.495 main 24 22 PPPP______P___ WP211986 12.6420 123.675 45 0 12.9224 123.307 3 40 996 0 9 100 100 12.5923 123.630 2 38 995 12.7573 123.387 TS 37 995 12.6556 123.474 2 46 13 282
1986287N09141 1986 103 WP MM GEORGIA 1986-10-19 06:00:00 TS 12.8432 122.814 40 996 tokyo main 46 33 OOOO______P___ jtwc_wp WP211986 12.8000 123.000 40 0 13.0000 122.700 3 40 996 0 9 100 100 0 12.7000 123.000 2 38 995 12.9000 122.700 TS 35 995 12.8159 122.668 2 42 14 280
1986287N09141 1986 103 WP MM GEORGIA 1986-10-19 09:00:00 TS 12.9695 122.045 main 54 0 PPPP______P___ WP211986 12.9655 122.030 37 0 13.0572 122.122 3 40 996 0 9 100 100 12.8417 122.347 2 38 995 13.0151 121.900 TS 35 995 12.9680 121.827 2 38 16 279
1986287N09141 1986 103 WP MM GEORGIA 1986-10-19 12:00:00 TS 13.0800 121.220 40 996 tokyo main 0 0 OOOO______O___ jtwc_wp WP211986 13.1000 121.000 35 0 13.1000 121.500 3 40 996 0 9 100 100 0 13.0000 121.500 2 38 995 13.1000 121.100 TS 35 995 13.1000 121.000 2 35 17 277
1986287N09141 1986 103 WP MM GEORGIA 1986-10-19 15:00:00 TS 13.1630 120.352 main 10 10 PPPP______P___ WP211986 13.1571 120.147 37 0 13.1500 120.765 3 40 995 0 9 100 100 13.1668 120.198 2 38 995 13.1572 120.427 TS 35 995 13.1840 120.225 2 37 16 275
1986287N09141 1986 103 WP MM GEORGIA 1986-10-19 18:00:00 TS 13.2299 119.535 40 994 tokyo main 89 89 OOOO______P___ jtwc_wp WP211986 13.2000 119.400 40 0 13.2000 120.000 3 40 994 0 9 100 100 0 13.3000 119.000 2 38 995 13.2000 119.800 TS 35 995 13.2496 119.474 2 40 14 275
1986287N09141 1986 103 WP MM GEORGIA 1986-10-19 21:00:00 TS 13.2837 118.875 main 151 151 PPPP______P___ WP211986 13.2848 118.705 42 0 13.2347 119.292 3 42 994 0 9 100 100 13.3488 118.487 2 38 995 13.2350 119.127 TS 35 995 13.3154 118.762 2 42 12 276
1986287N09141 1986 103 WP MM GEORGIA 1986-10-20 00:00:00 TS 13.3600 118.300 45 994 tokyo main 216 216 OOOO______O___ jtwc_wp WP211986 13.4000 118.100 45 0 13.3000 118.600 3 45 994 0 9 100 100 0 13.4000 118.200 2 38 995 13.3000 118.500 TS 35 995 13.4000 118.100 2 45 11 281
1986287N09141 1986 103 WP MM GEORGIA 1986-10-20 03:00:00 TS 13.5002 117.746 main 281 281 PPPP______P___ WP211986 13.5422 117.592 45 0 13.4424 117.885 3 45 995 0 9 100 100 13.5349 117.730 2 38 995 13.4421 118.000 TS 37 995 13.5393 117.520 2 45 11 286
1986287N09141 1986 103 WP MM GEORGIA 1986-10-20 06:00:00 TS 13.6596 117.197 45 996 tokyo main 336 336 OOOO______P___ jtwc_wp WP211986 13.7000 117.100 45 0 13.6000 117.200 3 45 996 0 9 100 100 0 13.7000 117.200 2 38 995 13.6000 117.500 TS 40 995 13.6982 116.985 2 45 11 285
1986287N09141 1986 103 WP MM GEORGIA 1986-10-20 09:00:00 TS 13.7975 116.612 main 393 393 PPPP______P___ WP211986 13.8649 116.523 45 0 13.6997 116.592 3 42 996 0 9 100 100 13.8575 116.608 2 38 993 13.7074 116.880 TS 40 994 13.8581 116.458 2 45 12 283
1986287N09141 1986 103 WP MM GEORGIA 1986-10-20 12:00:00 TS 13.9200 116.000 40 996 tokyo main 452 452 OOOO______O___ jtwc_wp WP211986 14.0000 115.900 45 0 13.8000 116.000 3 40 996 0 9 100 100 0 14.0000 116.000 2 38 992 13.8000 116.200 TS 40 993 14.0000 115.900 2 45 12 280
1986287N09141 1986 103 WP MM GEORGIA 1986-10-20 15:00:00 TS 14.0196 115.377 main 508 508 PPPP______P___ WP211986 14.0573 115.265 45 0 13.9499 115.358 3 42 995 0 9 112 112 14.0997 115.465 2 38 991 13.9073 115.515 TS 40 993 14.0839 115.280 2 45 13 279
1986287N09141 1986 103 WP MM GEORGIA 1986-10-20 18:00:00 TS 14.1098 114.725 45 994 tokyo main 577 518 OOOO______P___ jtwc_wp WP211986 14.1000 114.600 45 0 14.1000 114.700 3 45 994 0 9 125 125 0 14.2000 114.900 2 38 990 14.0000 114.800 TS 40 993 14.1492 114.624 2 45 13 278
1986287N09141 1986 103 WP MM GEORGIA 1986-10-20 21:00:00 TS 14.2014 114.032 main 508 444 PPPP______P___ WP211986 14.1921 113.937 45 0 14.2000 114.027 3 45 992 0 9 125 125 14.3425 114.215 2 38 989 14.0574 114.050 TS 40 991 14.2149 113.930 2 45 14 278
1986287N09141 1986 103 WP MM GEORGIA 1986-10-21 00:00:00 TS 14.3000 113.320 45 990 tokyo main 433 360 OOOO______O___ jtwc_wp WP211986 14.3000 113.200 45 0 14.3000 113.400 3 45 990 0 9 125 125 0 14.5000 113.500 2 38 989 14.1000 113.300 TS 40 990 14.3000 113.200 2 45 14 279
1986287N09141 1986 103 WP MM GEORGIA 1986-10-21 03:00:00 TS 14.4136 112.598 main 360 288 PPPP______P___ WP211986 14.3853 112.300 47 0 14.4496 112.892 3 45 987 0 9 125 125 14.6573 112.835 2 38 989 14.1424 112.570 TS 40 990 14.4332 112.392 2 46 14 280
1986287N09141 1986 103 WP MM GEORGIA 1986-10-21 06:00:00 TS 14.5372 111.891 45 985 tokyo main 288 229 OOOO______P___ jtwc_wp WP211986 14.5000 111.400 50 0 14.6000 112.400 3 45 985 0 9 125 125 0 14.8000 112.200 2 38 990 14.2000 111.900 TS 40 990 14.5861 111.556 2 47 14 281
1986287N09141 1986 103 WP MM GEORGIA 1986-10-21 09:00:00 TS 14.6660 111.220 main 223 161 PPPP______P___ WP211986 14.6921 110.655 50 0 14.7000 111.815 3 45 985 0 9 125 125 14.9074 111.577 2 38 990 14.2848 111.312 TS 40 990 14.7458 110.742 2 48 13 282
1986287N09141 1986 103 WP MM GEORGIA 1986-10-21 12:00:00 TS 14.8000 110.600 45 985 tokyo main 161 109 OOOO______O___ jtwc_wp WP211986 14.9000 110.000 50 0 14.8000 111.200 3 45 985 0 9 125 125 0 15.0000 111.000 2 38 990 14.4000 110.800 TS 40 990 14.9000 110.000 2 50 12 283
1986287N09141 1986 103 WP MM GEORGIA 1986-10-21 15:00:00 TS 14.9335 110.038 main 99 58 PPPP______P___ WP211986 15.0649 109.362 50 0 14.9498 110.600 3 45 985 0 9 125 125 15.0998 110.485 2 38 991 14.5348 110.335 TS 40 990 15.0183 109.407 2 47 11 284
1986287N09141 1986 103 WP MM GEORGIA 1986-10-21 18:00:00 TS 15.0666 109.518 45 985 tokyo main 58 21 OOOO______P___ jtwc_wp WP211986 15.2000 108.800 50 0 15.1000 110.000 3 45 985 0 9 125 125 0 15.2000 110.000 2 38 992 14.7000 109.900 TS 40 990 15.1328 108.889 2 45 10 285
1986287N09141 1986 103 WP MM GEORGIA 1986-10-21 21:00:00 TS 15.1894 109.037 main 10 0 PPPP______P___ WP211986 15.2922 108.342 45 0 15.1998 109.400 3 45 987 0 9 125 125 15.2996 109.537 2 38 993 14.8995 109.502 TS 40 991 15.2560 108.401 2 42 10 285
1986287N09141 1986 103 WP MM GEORGIA 1986-10-22 00:00:00 TS 15.3200 108.520 45 990 tokyo main 0 0 OOOO______O___ jtwc_wp WP211986 15.4000 107.900 40 0 15.3000 108.800 3 45 990 0 9 125 125 0 15.4000 109.000 2 38 995 15.1000 109.000 TS 40 993 15.4000 107.900 2 40 12 284
1986287N09141 1986 103 WP MM GEORGIA 1986-10-22 03:00:00 TS 15.4753 107.883 main 0 0 PPPP______P___ WP211986 15.5849 107.380 32 -1 15.4349 108.192 3 40 993 0 9 100 100 15.4854 108.250 2 28 996 15.2651 108.260 TS 37 994 15.6064 107.334 2 35 13 284
1986287N09141 1986 103 WP MM GEORGIA 1986-10-22 06:00:00 TS 15.6483 107.194 35 996 tokyo main 0 0 OOOO______P___ jtwc_wp WP211986 15.8000 106.800 25 -1 15.6000 107.600 3 35 996 0 9 75 75 0 15.6000 107.500 1 19 998 15.4000 107.400 TS 35 995 15.8293 106.746 2 30 14 285
1986287N09141 1986 103 WP MM GEORGIA 1986-10-22 09:00:00 TS 15.8333 106.520 main 0 0 PPPP______P___ WP211986 16.0224 106.165 22 -1 15.8072 107.058 3 998 0 9 15.7798 106.938 1 19 999 15.4927 106.512 TS 32 997 16.0375 106.134 2 25 13 286
1986287N09141 1986 103 WP MM GEORGIA 1986-10-22 12:00:00 TS 16.0250 105.850 1000 tokyo main 0 0 OOOO______O___ jtwc_wp WP211986 16.2000 105.500 20 -1 16.0000 106.500 2 1000 0 0 0 16.0000 106.500 1 19 1000 15.6000 105.700 TD 30 1000 16.2000 105.500 1 20 13 284
1986287N09141 1986 103 WP MM GEORGIA 1986-10-22 15:00:00 TS 16.1649 105.172 main 0 0 PP_P______P___ WP211986 16.2797 104.857 17 -1 16.1150 105.857 2 1002 0 0 1 15.7774 105.088 TD 27 1001 16.2938 104.844 1 18 12 280
1986287N09141 1986 103 WP MM GEORGIA 1986-10-22 18:00:00 TS 16.2444 104.592 1004 tokyo main 0 0 OO_O______P___ jtwc_wp WP211986 16.3000 104.200 15 -1 16.2000 105.200 2 1004 0 0 0 16.0000 104.600 TD 25 1002 16.3294 104.172 1 17 11 278
1986287N09141 1986 103 WP MM GEORGIA 1986-10-22 21:00:00 TS 16.3068 104.057 main 0 0 PP________P___ WP211986 16.3030 103.510 15 -1 16.2996 104.615 2 1005 0 0 TD 16.3252 103.488 1 16 10 276
1986287N09141 1986 103 WP MM GEORGIA 1986-10-23 00:00:00 TS 16.3600 103.520 1006 tokyo main 0 0 OO________O___ jtwc_wp WP211986 16.3000 102.800 15 -1 16.4000 104.000 2 1006 0 0 0 16.3000 102.800 1 15 8 285
1986287N09141 1986 103 WP MM GEORGIA 1986-10-23 03:00:00 TS 16.5008 103.283 main 0 0 _P____________ WP211986 -1 16.5008 103.283 2 1006 0 0 1 10 284
1986287N09141 1986 103 WP MM GEORGIA 1986-10-23 06:00:00 TS 16.6000 102.500 1006 tokyo main 0 _O____________ -1 16.6000 102.500 2 1006 0 0 0 1 15 278

デジタル台風データ・検索

IBTrACS Databaseについて

本データベースは、米国NOAAが公開する1842年以降の世界の熱帯低気圧のベストトラックデータアーカイブInternational Best Track Archive for Climate Stewardship (IBTrACS)を、ウェブで閲覧しやすい形式に変換したものです。

最終更新日:2021-12-01